Time;durP1;ratioP1;P1;durP2;ratioP2;P2;SDS_P1;SDS_P2;PMS_P1;PMS_P2;Temp;Humidity;BMP_temperature;BMP_pressure;BME280_temperature;BME280_humidity;BME280_pressure;Samples;Min_cycle;Max_cycle;Signal;HPM_P1;HPM_P2
2023/03/31 00:02:00;;;;;;;12.77;3.13;;;;;;;;;;5002482;28;20213;-69
2023/03/31 00:04:26;;;;;;;8.20;3.60;;;;;;;;;;5002117;28;20539;-69
2023/03/31 00:06:52;;;;;;;12.43;3.47;;;;;;;;;;5012427;28;20187;-67
2023/03/31 00:09:20;;;;;;;9.13;3.30;;;;;;;;;;5012823;28;20616;-68
2023/03/31 00:11:46;;;;;;;8.40;3.33;;;;;;;;;;5012666;28;20628;-68
2023/03/31 00:14:11;;;;;;;12.07;3.00;;;;;;;;;;5012926;28;20290;-68
2023/03/31 00:16:37;;;;;;;11.37;3.33;;;;;;;;;;5011386;28;20174;-67
2023/03/31 00:19:03;;;;;;;12.00;4.00;;;;;;;;;;5012018;28;20194;-67
2023/03/31 00:21:32;;;;;;;10.57;3.33;;;;;;;;;;5012837;28;20289;-68
2023/03/31 00:24:08;;;;;;;16.13;3.40;;;;;;;;;;5011657;28;20918;-68
2023/03/31 00:26:34;;;;;;;8.60;3.07;;;;;;;;;;5012552;28;20179;-68
2023/03/31 00:29:00;;;;;;;9.97;2.57;;;;;;;;;;5013519;28;20186;-67
2023/03/31 00:31:26;;;;;;;8.77;3.27;;;;;;;;;;5013408;28;20207;-68
2023/03/31 00:33:51;;;;;;;7.73;3.13;;;;;;;;;;5010414;28;20243;-68
2023/03/31 00:36:20;;;;;;;9.03;2.90;;;;;;;;;;5016668;28;20183;-68
2023/03/31 00:38:48;;;;;;;11.40;2.30;;;;;;;;;;5013373;28;20237;-68
2023/03/31 00:41:13;;;;;;;9.43;2.43;;;;;;;;;;5012473;28;20203;-69
2023/03/31 00:43:39;;;;;;;13.80;3.03;;;;;;;;;;5009131;28;20189;-68
2023/03/31 00:46:05;;;;;;;9.50;3.27;;;;;;;;;;5011418;28;20182;-68
2023/03/31 00:48:31;;;;;;;11.60;2.53;;;;;;;;;;5005535;28;20555;-67
2023/03/31 00:50:58;;;;;;;11.67;2.50;;;;;;;;;;4999308;28;20195;-68
2023/03/31 00:53:25;;;;;;;10.03;3.13;;;;;;;;;;5008088;28;20238;-67
2023/03/31 00:55:53;;;;;;;8.77;2.17;;;;;;;;;;5005286;28;20549;-67
2023/03/31 00:58:19;;;;;;;9.23;1.97;;;;;;;;;;5010353;28;20186;-66
2023/03/31 01:00:46;;;;;;;9.37;3.73;;;;;;;;;;5003374;28;20202;-67
2023/03/31 01:03:12;;;;;;;7.50;1.93;;;;;;;;;;5004135;28;20190;-67
2023/03/31 01:05:41;;;;;;;9.60;2.83;;;;;;;;;;5004639;28;20605;-67
2023/03/31 01:08:07;;;;;;;8.10;2.90;;;;;;;;;;5011846;28;20253;-66
2023/03/31 01:10:40;;;;;;;10.03;2.90;;;;;;;;;;5012321;28;20199;-66
2023/03/31 01:13:07;;;;;;;13.90;3.90;;;;;;;;;;5011886;28;20175;-66
2023/03/31 01:15:32;;;;;;;5.13;1.93;;;;;;;;;;5011867;28;20175;-66
2023/03/31 01:17:59;;;;;;;9.23;2.67;;;;;;;;;;5001873;28;20672;-67
2023/03/31 01:20:40;;;;;;;10.23;2.40;;;;;;;;;;5011323;28;20207;-66
2023/03/31 01:23:06;;;;;;;10.53;4.10;;;;;;;;;;5006610;28;20210;-66
2023/03/31 01:25:50;;;;;;;11.93;3.77;;;;;;;;;;5003315;28;20175;-66
2023/03/31 01:28:33;;;;;;;10.77;3.70;;;;;;;;;;5009675;28;20203;-67
2023/03/31 01:31:14;;;;;;;6.90;3.23;;;;;;;;;;5023199;28;20210;-67
2023/03/31 01:33:43;;;;;;;11.17;3.43;;;;;;;;;;5023186;28;20603;-66
2023/03/31 01:36:17;;;;;;;7.40;3.80;;;;;;;;;;5007085;28;20663;-67
2023/03/31 01:38:57;;;;;;;9.07;4.00;;;;;;;;;;5006831;28;20178;-67
2023/03/31 01:41:32;;;;;;;13.63;5.47;;;;;;;;;;5008377;28;20206;-67
2023/03/31 01:44:16;;;;;;;10.17;4.77;;;;;;;;;;5008819;28;20185;-67
2023/03/31 01:46:52;;;;;;;11.17;4.20;;;;;;;;;;5005078;28;20167;-67
2023/03/31 01:49:21;;;;;;;12.83;5.27;;;;;;;;;;5003755;28;20189;-66
2023/03/31 01:52:02;;;;;;;11.37;4.47;;;;;;;;;;5007478;28;20198;-67
2023/03/31 01:54:38;;;;;;;11.33;4.33;;;;;;;;;;5010758;28;20719;-67
2023/03/31 01:57:06;;;;;;;12.90;5.07;;;;;;;;;;5006105;28;20650;-67
2023/03/31 01:59:37;;;;;;;12.57;4.33;;;;;;;;;;5007476;28;20184;-67
2023/03/31 02:02:06;;;;;;;9.63;3.60;;;;;;;;;;5008823;28;20214;-67
2023/03/31 02:04:43;;;;;;;9.85;4.63;;;;;;;;;;5007395;28;20186;-68
2023/03/31 02:07:12;;;;;;;9.85;4.38;;;;;;;;;;5013167;28;20182;-68
2023/03/31 02:09:40;;;;;;;12.43;4.40;;;;;;;;;;5007522;28;20292;-68
2023/03/31 02:12:07;;;;;;;6.87;3.63;;;;;;;;;;5013906;28;20672;-68
2023/03/31 02:14:33;;;;;;;18.30;4.83;;;;;;;;;;5012043;28;20178;-68
2023/03/31 02:17:01;;;;;;;11.63;4.67;;;;;;;;;;5014376;28;20183;-67
2023/03/31 02:19:30;;;;;;;7.47;3.40;;;;;;;;;;5013879;28;20273;-68
2023/03/31 02:21:56;;;;;;;11.40;3.43;;;;;;;;;;5015161;28;20282;-68
2023/03/31 02:24:24;;;;;;;14.00;4.70;;;;;;;;;;5014202;28;20664;-68
2023/03/31 02:26:54;;;;;;;7.47;4.13;;;;;;;;;;5014460;28;20266;-68
2023/03/31 02:29:19;;;;;;;22.33;6.73;;;;;;;;;;5012961;28;20532;-69
2023/03/31 02:31:54;;;;;;;10.73;3.70;;;;;;;;;;5028941;23;20332;-71
2023/03/31 02:34:19;;;;;;;10.77;3.50;;;;;;;;;;5015428;28;20225;-71
2023/03/31 02:36:45;;;;;;;12.33;3.67;;;;;;;;;;5010980;28;20266;-71
2023/03/31 02:39:13;;;;;;;14.23;3.33;;;;;;;;;;5015271;28;20190;-71
2023/03/31 02:41:38;;;;;;;9.13;3.57;;;;;;;;;;5013334;28;20265;-71
2023/03/31 02:44:03;;;;;;;12.43;3.60;;;;;;;;;;5014699;28;20187;-71
2023/03/31 02:46:29;;;;;;;10.70;3.67;;;;;;;;;;5014814;28;20187;-71
2023/03/31 02:48:56;;;;;;;8.83;3.50;;;;;;;;;;5013787;28;20175;-71
2023/03/31 02:51:40;;;;;;;10.20;3.57;;;;;;;;;;5015142;28;20203;-71
2023/03/31 02:54:17;;;;;;;9.33;3.47;;;;;;;;;;5011254;28;20178;-71
2023/03/31 02:56:48;;;;;;;6.63;3.00;;;;;;;;;;5011663;28;20660;-69
2023/03/31 02:59:32;;;;;;;11.87;4.23;;;;;;;;;;5006869;28;20683;-71
2023/03/31 03:02:00;;;;;;;9.00;3.27;;;;;;;;;;5005277;28;20203;-71
2023/03/31 03:04:40;;;;;;;11.13;3.73;;;;;;;;;;5012201;28;20175;-71
2023/03/31 03:07:16;;;;;;;9.47;3.20;;;;;;;;;;5010339;28;20203;-71
2023/03/31 03:09:45;;;;;;;10.47;3.13;;;;;;;;;;5010482;28;20178;-71
2023/03/31 03:12:13;;;;;;;9.57;3.20;;;;;;;;;;5012730;28;20187;-71
2023/03/31 03:14:43;;;;;;;8.33;3.60;;;;;;;;;;5013194;28;20186;-71
2023/03/31 03:17:13;;;;;;;12.25;3.63;;;;;;;;;;5014430;28;20189;-71
2023/03/31 03:19:40;;;;;;;12.27;3.20;;;;;;;;;;5010056;28;20184;-71
2023/03/31 03:22:05;;;;;;;11.40;3.17;;;;;;;;;;5010752;28;20671;-71
2023/03/31 03:24:33;;;;;;;9.13;3.07;;;;;;;;;;5005855;28;20203;-71
2023/03/31 03:26:58;;;;;;;9.60;3.57;;;;;;;;;;5013933;28;20176;-71
2023/03/31 03:29:23;;;;;;;8.27;3.40;;;;;;;;;;5007707;28;20167;-71
2023/03/31 03:31:48;;;;;;;7.20;2.77;;;;;;;;;;5013778;28;20210;-71
2023/03/31 03:34:15;;;;;;;17.57;3.33;;;;;;;;;;5008144;28;20214;-70
2023/03/31 03:36:40;;;;;;;11.23;3.53;;;;;;;;;;5011013;28;20557;-71
2023/03/31 03:39:06;;;;;;;13.10;2.67;;;;;;;;;;5013959;28;20190;-71
2023/03/31 03:41:32;;;;;;;8.73;2.87;;;;;;;;;;5008762;28;20199;-71
2023/03/31 03:43:57;;;;;;;10.90;3.20;;;;;;;;;;5013012;28;20171;-71
2023/03/31 03:46:22;;;;;;;7.10;3.00;;;;;;;;;;5012969;28;20198;-71
2023/03/31 03:48:47;;;;;;;9.20;2.70;;;;;;;;;;5011248;28;20645;-71
2023/03/31 03:51:13;;;;;;;9.50;3.07;;;;;;;;;;5013252;28;20684;-71
2023/03/31 03:53:38;;;;;;;7.80;3.10;;;;;;;;;;5012150;28;20167;-70
2023/03/31 03:56:03;;;;;;;8.20;2.47;;;;;;;;;;5009085;28;20245;-71
2023/03/31 03:58:28;;;;;;;7.67;2.47;;;;;;;;;;5013968;28;20207;-71
2023/03/31 04:00:55;;;;;;;7.07;2.93;;;;;;;;;;5011036;28;20214;-71
2023/03/31 04:03:21;;;;;;;13.57;2.77;;;;;;;;;;5010077;28;20191;-71
2023/03/31 04:05:48;;;;;;;6.83;2.33;;;;;;;;;;5014008;28;20274;-70
2023/03/31 04:08:14;;;;;;;7.03;2.37;;;;;;;;;;5013023;28;20194;-70
2023/03/31 04:10:42;;;;;;;8.90;2.30;;;;;;;;;;5004949;28;20256;-70
2023/03/31 04:13:08;;;;;;;6.40;2.40;;;;;;;;;;5011991;28;20688;-71
2023/03/31 04:15:33;;;;;;;4.97;1.90;;;;;;;;;;5013088;28;20382;-71
2023/03/31 04:17:58;;;;;;;4.93;1.70;;;;;;;;;;5012956;28;20179;-70
2023/03/31 04:20:26;;;;;;;6.67;2.23;;;;;;;;;;5010725;28;20206;-71
2023/03/31 04:22:51;;;;;;;7.13;2.77;;;;;;;;;;5010617;28;20205;-71
2023/03/31 04:25:17;;;;;;;8.77;3.37;;;;;;;;;;5008599;28;20179;-71
2023/03/31 04:27:49;;;;;;;4.80;2.70;;;;;;;;;;5012034;28;20261;-71
2023/03/31 04:30:24;;;;;;;7.20;2.20;;;;;;;;;;5011633;28;20214;-70
2023/03/31 04:32:56;;;;;;;9.37;2.47;;;;;;;;;;5012300;28;20191;-71
2023/03/31 04:35:22;;;;;;;8.90;3.50;;;;;;;;;;5010130;28;20458;-71
2023/03/31 04:37:48;;;;;;;12.70;3.20;;;;;;;;;;5012484;28;20205;-71
2023/03/31 04:40:13;;;;;;;9.63;2.70;;;;;;;;;;5011854;28;20206;-71
2023/03/31 04:42:38;;;;;;;11.30;4.03;;;;;;;;;;5011726;28;20282;-71
2023/03/31 04:45:04;;;;;;;8.63;2.80;;;;;;;;;;5011646;28;20190;-71
2023/03/31 04:47:29;;;;;;;6.93;2.97;;;;;;;;;;5009066;28;20181;-71
2023/03/31 04:49:54;;;;;;;5.77;2.30;;;;;;;;;;5010756;28;20249;-71
2023/03/31 04:52:19;;;;;;;9.10;3.00;;;;;;;;;;5011933;28;20183;-71
2023/03/31 04:54:45;;;;;;;6.97;2.20;;;;;;;;;;5010684;28;20167;-71
2023/03/31 04:57:10;;;;;;;10.13;2.50;;;;;;;;;;5010899;28;20218;-70
2023/03/31 04:59:35;;;;;;;5.73;1.90;;;;;;;;;;5011420;28;20171;-71
2023/03/31 05:02:00;;;;;;;4.10;2.07;;;;;;;;;;5005272;28;20648;-71
2023/03/31 05:04:25;;;;;;;6.70;2.50;;;;;;;;;;5006827;28;20187;-72
2023/03/31 05:06:51;;;;;;;7.40;2.47;;;;;;;;;;5009774;28;20180;-71
2023/03/31 05:09:16;;;;;;;7.47;2.23;;;;;;;;;;5010315;28;20237;-72
2023/03/31 05:11:41;;;;;;;6.83;2.23;;;;;;;;;;5005775;28;20183;-71
2023/03/31 05:14:06;;;;;;;7.03;2.50;;;;;;;;;;5010370;28;20672;-71
2023/03/31 05:16:31;;;;;;;4.73;1.60;;;;;;;;;;5008094;28;20683;-72
2023/03/31 05:18:57;;;;;;;6.73;1.70;;;;;;;;;;5007443;28;20237;-71
2023/03/31 05:21:22;;;;;;;8.07;1.83;;;;;;;;;;5010051;28;20225;-71
2023/03/31 05:23:48;;;;;;;5.30;1.73;;;;;;;;;;5009247;28;20186;-71
2023/03/31 05:26:14;;;;;;;9.00;2.80;;;;;;;;;;5003850;28;20531;-72
2023/03/31 05:28:39;;;;;;;10.17;2.00;;;;;;;;;;5012517;28;20171;-71
2023/03/31 05:31:05;;;;;;;7.93;2.43;;;;;;;;;;5008688;28;20700;-71
2023/03/31 05:33:31;;;;;;;7.87;1.90;;;;;;;;;;5009762;28;20179;-71
2023/03/31 05:35:58;;;;;;;11.20;2.73;;;;;;;;;;5003991;28;20536;-71
2023/03/31 05:38:27;;;;;;;6.07;2.20;;;;;;;;;;5004201;28;20175;-72
2023/03/31 05:40:52;;;;;;;8.53;1.77;;;;;;;;;;5002406;28;20673;-71
2023/03/31 05:43:17;;;;;;;6.93;1.67;;;;;;;;;;5002138;28;20288;-71
2023/03/31 05:45:43;;;;;;;10.67;2.93;;;;;;;;;;5009670;28;20197;-70
2023/03/31 05:48:08;;;;;;;4.20;1.53;;;;;;;;;;5008920;28;21513;-70
2023/03/31 05:50:33;;;;;;;3.80;1.70;;;;;;;;;;5005551;28;20221;-72
2023/03/31 05:52:58;;;;;;;5.57;1.97;;;;;;;;;;5005823;28;20311;-72
2023/03/31 05:55:24;;;;;;;6.53;1.87;;;;;;;;;;5005862;28;20483;-72
2023/03/31 05:57:49;;;;;;;6.20;1.83;;;;;;;;;;5010907;28;20202;-72
2023/03/31 06:00:14;;;;;;;4.57;1.63;;;;;;;;;;5001573;28;20624;-72
2023/03/31 06:02:40;;;;;;;7.83;1.67;;;;;;;;;;5006461;28;20217;-71
2023/03/31 06:05:05;;;;;;;4.47;1.70;;;;;;;;;;5006029;28;20183;-72
2023/03/31 06:07:31;;;;;;;10.50;2.33;;;;;;;;;;5008793;28;20186;-72
2023/03/31 06:09:56;;;;;;;3.57;1.33;;;;;;;;;;5009251;28;20574;-72
2023/03/31 06:12:21;;;;;;;4.10;1.27;;;;;;;;;;5010022;28;20789;-72
2023/03/31 06:14:46;;;;;;;3.87;1.20;;;;;;;;;;5010128;28;20666;-72
2023/03/31 06:17:11;;;;;;;6.87;1.70;;;;;;;;;;5010788;28;20198;-72
2023/03/31 06:19:37;;;;;;;8.47;1.80;;;;;;;;;;5008092;28;20222;-72
2023/03/31 06:22:02;;;;;;;3.90;1.47;;;;;;;;;;5008389;28;20210;-71
2023/03/31 06:24:27;;;;;;;6.23;1.40;;;;;;;;;;5003463;28;21119;-71
2023/03/31 06:26:52;;;;;;;2.63;1.33;;;;;;;;;;5010787;28;20182;-72
2023/03/31 06:29:18;;;;;;;6.67;1.60;;;;;;;;;;5010950;28;20187;-71
2023/03/31 06:31:43;;;;;;;2.30;1.00;;;;;;;;;;5011139;28;20222;-71
2023/03/31 06:34:08;;;;;;;5.90;1.70;;;;;;;;;;5009771;28;20245;-71
2023/03/31 06:36:33;;;;;;;2.50;0.93;;;;;;;;;;5003424;28;20253;-72
2023/03/31 06:38:58;;;;;;;4.13;1.20;;;;;;;;;;5010710;28;20250;-71
2023/03/31 06:41:25;;;;;;;4.03;1.67;;;;;;;;;;5009375;28;20219;-71
2023/03/31 06:43:50;;;;;;;4.53;1.40;;;;;;;;;;5009878;28;20183;-71
2023/03/31 06:46:15;;;;;;;4.70;1.67;;;;;;;;;;5011254;28;20733;-71
2023/03/31 06:48:41;;;;;;;4.80;1.20;;;;;;;;;;5011119;28;20179;-71
2023/03/31 06:51:06;;;;;;;4.10;1.47;;;;;;;;;;5011464;28;20215;-71
2023/03/31 06:53:32;;;;;;;3.87;1.23;;;;;;;;;;5010443;28;20225;-71
2023/03/31 06:55:57;;;;;;;3.77;1.10;;;;;;;;;;5012641;28;20181;-71
2023/03/31 06:58:23;;;;;;;3.83;1.10;;;;;;;;;;5014290;28;20179;-71
2023/03/31 07:00:48;;;;;;;3.10;0.80;;;;;;;;;;5012812;28;20199;-71
2023/03/31 07:03:15;;;;;;;2.23;0.97;;;;;;;;;;5010910;28;20296;-71
2023/03/31 07:05:40;;;;;;;2.47;1.60;;;;;;;;;;5012405;28;20551;-71
2023/03/31 07:08:06;;;;;;;3.90;1.20;;;;;;;;;;5011300;28;20175;-71
2023/03/31 07:10:31;;;;;;;3.87;1.03;;;;;;;;;;5013429;28;20673;-71
2023/03/31 07:12:57;;;;;;;3.00;0.83;;;;;;;;;;5014051;28;20179;-71
2023/03/31 07:15:23;;;;;;;4.10;1.57;;;;;;;;;;5012532;28;20183;-71
2023/03/31 07:17:49;;;;;;;4.03;1.40;;;;;;;;;;5014175;28;20183;-71
2023/03/31 07:20:16;;;;;;;3.67;1.50;;;;;;;;;;5015196;28;20286;-71
2023/03/31 07:22:41;;;;;;;2.90;1.20;;;;;;;;;;5013488;28;20256;-71
2023/03/31 07:25:07;;;;;;;5.77;1.30;;;;;;;;;;5012013;28;20546;-71
2023/03/31 07:27:32;;;;;;;3.23;1.50;;;;;;;;;;5010602;28;20645;-71
2023/03/31 07:29:58;;;;;;;5.07;1.80;;;;;;;;;;5012027;28;20227;-71
2023/03/31 07:32:23;;;;;;;7.30;2.80;;;;;;;;;;5008793;28;20171;-71
2023/03/31 07:34:48;;;;;;;5.77;1.53;;;;;;;;;;5008364;28;20880;-72
2023/03/31 07:37:13;;;;;;;3.77;1.40;;;;;;;;;;5001691;28;20229;-72
2023/03/31 07:39:39;;;;;;;3.57;1.63;;;;;;;;;;5009900;28;20183;-72
2023/03/31 07:42:04;;;;;;;3.13;1.67;;;;;;;;;;5008648;28;20209;-71
2023/03/31 07:44:31;;;;;;;5.70;2.00;;;;;;;;;;5004761;28;20179;-72
2023/03/31 07:46:57;;;;;;;2.93;2.03;;;;;;;;;;5008526;28;20175;-71
2023/03/31 07:49:22;;;;;;;5.03;1.90;;;;;;;;;;5005757;28;20183;-72
2023/03/31 07:51:47;;;;;;;7.10;2.17;;;;;;;;;;5009603;28;20202;-72
2023/03/31 07:54:12;;;;;;;4.32;1.63;;;;;;;;;;5002464;28;20188;-72
2023/03/31 07:56:38;;;;;;;3.90;1.90;;;;;;;;;;5009644;28;20179;-71
2023/03/31 07:59:03;;;;;;;5.35;1.63;;;;;;;;;;5004652;28;20179;-72
2023/03/31 08:01:29;;;;;;;5.72;2.60;;;;;;;;;;5009943;28;20206;-72
2023/03/31 08:03:54;;;;;;;10.18;2.88;;;;;;;;;;5002886;28;20240;-72
2023/03/31 08:06:20;;;;;;;5.50;2.03;;;;;;;;;;5012008;28;20183;-72
2023/03/31 08:08:46;;;;;;;4.60;2.30;;;;;;;;;;5005339;28;20565;-72
2023/03/31 08:11:11;;;;;;;7.35;2.40;;;;;;;;;;5008143;28;20191;-71
2023/03/31 08:13:36;;;;;;;5.57;2.47;;;;;;;;;;5003395;28;20186;-72
2023/03/31 08:16:02;;;;;;;9.02;2.85;;;;;;;;;;5010575;28;20179;-72
2023/03/31 08:18:27;;;;;;;9.80;3.80;;;;;;;;;;5007465;28;20194;-71
2023/03/31 08:20:52;;;;;;;5.97;3.00;;;;;;;;;;5005696;28;20187;-71
2023/03/31 08:23:17;;;;;;;6.50;3.40;;;;;;;;;;5003911;28;20203;-71
2023/03/31 08:25:43;;;;;;;9.57;3.97;;;;;;;;;;5009465;28;20190;-71
2023/03/31 08:28:12;;;;;;;8.60;3.38;;;;;;;;;;5008873;28;20262;-71
2023/03/31 08:30:38;;;;;;;13.70;3.85;;;;;;;;;;5015967;23;20497;-68
2023/03/31 08:33:03;;;;;;;8.50;3.50;;;;;;;;;;5006251;28;20213;-68
2023/03/31 08:35:29;;;;;;;13.90;5.20;;;;;;;;;;5008142;28;20439;-68
2023/03/31 08:37:54;;;;;;;10.27;3.35;;;;;;;;;;5010369;28;20171;-68
2023/03/31 08:40:22;;;;;;;12.15;3.03;;;;;;;;;;4999099;28;20239;-68
2023/03/31 08:43:01;;;;;;;9.85;2.50;;;;;;;;;;4984647;28;20293;-68
2023/03/31 08:45:28;;;;;;;10.20;2.90;;;;;;;;;;4990930;28;20254;-68
2023/03/31 08:47:59;;;;;;;11.13;3.60;;;;;;;;;;4987987;28;20599;-68
2023/03/31 08:50:26;;;;;;;15.70;4.43;;;;;;;;;;4987324;28;20253;-69
2023/03/31 08:53:18;;;;;;;9.70;3.38;;;;;;;;;;4987292;28;20199;-68
2023/03/31 08:55:43;;;;;;;8.93;3.67;;;;;;;;;;4986478;28;20719;-68
2023/03/31 08:58:27;;;;;;;12.52;4.35;;;;;;;;;;4988430;28;20189;-68
2023/03/31 09:01:21;;;;;;;7.72;3.33;;;;;;;;;;4989882;28;20203;-68
2023/03/31 09:04:05;;;;;;;15.38;3.40;;;;;;;;;;4982413;28;20234;-68
2023/03/31 09:06:33;;;;;;;16.70;4.18;;;;;;;;;;4984512;28;20183;-68
2023/03/31 09:09:00;;;;;;;10.50;3.53;;;;;;;;;;4990721;28;20199;-68
2023/03/31 09:11:43;;;;;;;9.98;3.03;;;;;;;;;;4990683;28;20199;-68
2023/03/31 09:14:16;;;;;;;16.08;3.83;;;;;;;;;;4986537;28;20183;-68
2023/03/31 09:16:44;;;;;;;16.48;3.35;;;;;;;;;;4990002;28;20182;-68
2023/03/31 09:19:18;;;;;;;10.00;2.95;;;;;;;;;;4992299;28;20180;-68
2023/03/31 09:21:46;;;;;;;8.93;2.70;;;;;;;;;;4991843;28;20350;-68
2023/03/31 09:24:19;;;;;;;9.13;3.20;;;;;;;;;;4989088;28;20172;-68
2023/03/31 09:26:55;;;;;;;11.35;3.67;;;;;;;;;;4992149;28;20720;-68
2023/03/31 09:29:37;;;;;;;13.50;2.53;;;;;;;;;;4990922;28;20168;-68
2023/03/31 09:32:29;;;;;;;15.55;3.63;;;;;;;;;;4990142;28;20582;-68
2023/03/31 09:34:59;;;;;;;12.10;3.92;;;;;;;;;;5004840;28;20215;-68
2023/03/31 09:37:26;;;;;;;15.23;3.05;;;;;;;;;;4987573;28;20187;-68
2023/03/31 09:39:51;;;;;;;8.80;2.72;;;;;;;;;;4990472;28;20542;-68
2023/03/31 09:42:18;;;;;;;9.82;3.03;;;;;;;;;;4991579;28;20202;-68
2023/03/31 09:44:44;;;;;;;9.55;2.88;;;;;;;;;;4991273;28;20175;-68
2023/03/31 09:47:15;;;;;;;9.32;3.30;;;;;;;;;;4991679;28;20176;-68
2023/03/31 09:49:43;;;;;;;5.40;2.67;;;;;;;;;;4990962;28;20217;-68
2023/03/31 09:52:13;;;;;;;13.10;4.53;;;;;;;;;;4989344;28;20195;-68
2023/03/31 09:54:42;;;;;;;10.73;3.28;;;;;;;;;;4990386;28;20176;-68
2023/03/31 09:57:21;;;;;;;9.48;3.20;;;;;;;;;;4991370;28;20171;-68
2023/03/31 09:59:49;;;;;;;12.80;3.10;;;;;;;;;;4994327;28;20492;-68
2023/03/31 10:02:20;;;;;;;14.07;4.38;;;;;;;;;;4995266;28;20242;-68
2023/03/31 10:04:45;;;;;;;7.90;2.65;;;;;;;;;;4987561;28;20193;-69
2023/03/31 10:07:11;;;;;;;15.23;3.33;;;;;;;;;;4986580;28;20308;-68
2023/03/31 10:09:37;;;;;;;12.52;3.08;;;;;;;;;;4987756;28;20190;-68
2023/03/31 10:12:06;;;;;;;9.52;3.35;;;;;;;;;;4986054;28;20807;-68
2023/03/31 10:14:37;;;;;;;10.90;3.28;;;;;;;;;;4990027;28;20774;-68
2023/03/31 10:17:03;;;;;;;9.25;2.53;;;;;;;;;;4988827;28;20205;-68
2023/03/31 10:19:31;;;;;;;10.35;2.47;;;;;;;;;;4981574;28;20192;-68
2023/03/31 10:21:58;;;;;;;9.52;2.25;;;;;;;;;;4989216;28;20210;-68
2023/03/31 10:24:23;;;;;;;10.75;3.25;;;;;;;;;;4981473;28;20540;-68
2023/03/31 10:26:51;;;;;;;10.15;3.15;;;;;;;;;;4991904;28;20172;-67
2023/03/31 10:29:30;;;;;;;8.35;2.30;;;;;;;;;;4990494;28;20214;-68
2023/03/31 10:32:01;;;;;;;10.30;2.58;;;;;;;;;;4992514;28;20700;-68
2023/03/31 10:34:26;;;;;;;5.15;2.55;;;;;;;;;;4988961;28;20581;-68
2023/03/31 10:36:52;;;;;;;6.43;2.05;;;;;;;;;;4989172;28;20259;-67
2023/03/31 10:39:17;;;;;;;9.93;2.72;;;;;;;;;;4990261;28;20688;-68
2023/03/31 10:41:48;;;;;;;6.85;2.65;;;;;;;;;;4988504;28;20211;-68
2023/03/31 10:44:43;;;;;;;6.75;2.08;;;;;;;;;;4985938;28;20204;-68
2023/03/31 10:47:14;;;;;;;11.15;2.88;;;;;;;;;;4980055;28;20266;-68
2023/03/31 10:49:40;;;;;;;10.68;2.58;;;;;;;;;;4988475;28;20183;-68
2023/03/31 10:52:16;;;;;;;12.40;3.33;;;;;;;;;;4990046;28;20200;-68
2023/03/31 10:54:53;;;;;;;6.70;2.92;;;;;;;;;;4988555;28;20265;-68
2023/03/31 10:57:23;;;;;;;9.50;2.47;;;;;;;;;;4994585;28;20184;-67
2023/03/31 10:59:50;;;;;;;8.43;2.88;;;;;;;;;;4994607;28;20664;-68
2023/03/31 11:02:37;;;;;;;7.93;2.97;;;;;;;;;;4991498;28;20207;-68
2023/03/31 11:05:03;;;;;;;15.75;3.55;;;;;;;;;;4988526;28;20172;-68
2023/03/31 11:07:34;;;;;;;6.53;2.60;;;;;;;;;;4984430;28;20274;-68
2023/03/31 11:10:09;;;;;;;10.05;3.20;;;;;;;;;;4995922;28;20171;-68
2023/03/31 11:12:45;;;;;;;13.60;2.80;;;;;;;;;;4994356;28;20175;-68
2023/03/31 11:15:14;;;;;;;9.95;3.22;;;;;;;;;;4991243;28;20262;-68
2023/03/31 11:17:58;;;;;;;9.07;3.30;;;;;;;;;;4993029;28;20182;-68
2023/03/31 11:20:27;;;;;;;9.75;3.10;;;;;;;;;;4991085;28;20246;-68
2023/03/31 11:23:05;;;;;;;8.48;3.25;;;;;;;;;;4988679;28;20207;-69
2023/03/31 11:25:51;;;;;;;12.40;3.15;;;;;;;;;;4991389;28;20179;-68
2023/03/31 11:28:35;;;;;;;9.77;2.83;;;;;;;;;;4993000;28;20202;-68
2023/03/31 11:31:06;;;;;;;10.20;3.33;;;;;;;;;;4982670;28;20571;-68
2023/03/31 11:33:34;;;;;;;8.52;2.40;;;;;;;;;;4991719;28;20183;-68
2023/03/31 11:36:03;;;;;;;10.73;3.25;;;;;;;;;;4989908;28;20661;-68
2023/03/31 11:38:38;;;;;;;8.13;2.67;;;;;;;;;;4985413;28;20209;-68
2023/03/31 11:41:06;;;;;;;9.07;2.53;;;;;;;;;;4990949;28;20286;-68
2023/03/31 11:43:35;;;;;;;12.75;3.67;;;;;;;;;;4988001;28;20294;-68
2023/03/31 11:46:06;;;;;;;7.35;2.35;;;;;;;;;;4987591;28;20701;-68
2023/03/31 11:48:35;;;;;;;13.45;3.85;;;;;;;;;;4989499;28;20250;-68
2023/03/31 11:51:01;;;;;;;10.25;2.92;;;;;;;;;;4987698;28;20200;-68
2023/03/31 11:53:31;;;;;;;11.02;2.35;;;;;;;;;;4984485;28;20191;-68
2023/03/31 11:55:56;;;;;;;8.60;2.28;;;;;;;;;;4990997;28;20190;-68
2023/03/31 11:58:22;;;;;;;6.57;2.17;;;;;;;;;;4994399;28;20243;-68
2023/03/31 12:00:50;;;;;;;8.27;2.03;;;;;;;;;;4989274;28;20199;-68
2023/03/31 12:03:28;;;;;;;5.57;1.83;;;;;;;;;;4993387;28;20203;-68
2023/03/31 12:05:57;;;;;;;6.68;1.85;;;;;;;;;;4991657;28;20219;-68
2023/03/31 12:08:35;;;;;;;7.53;2.13;;;;;;;;;;4984090;28;20180;-68
2023/03/31 12:11:05;;;;;;;5.05;1.70;;;;;;;;;;4985388;28;20201;-68
2023/03/31 12:13:37;;;;;;;8.90;2.30;;;;;;;;;;4990990;28;20211;-68
2023/03/31 12:16:15;;;;;;;4.68;1.83;;;;;;;;;;4991033;28;20176;-67
2023/03/31 12:18:56;;;;;;;8.48;2.53;;;;;;;;;;4989562;28;20612;-68
2023/03/31 12:21:22;;;;;;;8.00;2.03;;;;;;;;;;4980689;28;20226;-68
2023/03/31 12:23:48;;;;;;;4.78;1.83;;;;;;;;;;4991334;28;20180;-68
2023/03/31 12:26:35;;;;;;;6.28;1.90;;;;;;;;;;4991076;28;20194;-68
2023/03/31 12:29:03;;;;;;;5.60;1.63;;;;;;;;;;4992805;28;20278;-68
2023/03/31 12:31:31;;;;;;;4.90;1.40;;;;;;;;;;4986367;28;20247;-68
2023/03/31 12:34:05;;;;;;;6.28;1.50;;;;;;;;;;4989876;28;20180;-68
2023/03/31 12:36:50;;;;;;;4.78;1.30;;;;;;;;;;4985616;28;20183;-68
2023/03/31 12:39:33;;;;;;;4.10;1.75;;;;;;;;;;4992508;28;20183;-68
2023/03/31 12:42:10;;;;;;;7.30;1.60;;;;;;;;;;4990010;28;20701;-68
2023/03/31 12:44:45;;;;;;;8.55;2.83;;;;;;;;;;4984713;28;20187;-68
2023/03/31 12:47:13;;;;;;;6.47;2.13;;;;;;;;;;4987475;28;20183;-68
2023/03/31 12:49:39;;;;;;;6.90;1.90;;;;;;;;;;4988166;28;20186;-68
2023/03/31 12:52:27;;;;;;;9.00;3.63;;;;;;;;;;4987414;28;20619;-68
2023/03/31 12:55:27;;;;;;;10.10;2.38;;;;;;;;;;4973463;28;20184;-68
2023/03/31 12:58:13;;;;;;;8.77;2.58;;;;;;;;;;4929681;29;20201;-68
2023/03/31 13:00:58;;;;;;;10.52;2.60;;;;;;;;;;4983174;28;20312;-68
2023/03/31 13:03:42;;;;;;;10.07;3.20;;;;;;;;;;4983788;28;20216;-68
2023/03/31 13:06:28;;;;;;;9.95;2.53;;;;;;;;;;4988456;28;20172;-68
2023/03/31 13:08:56;;;;;;;7.68;2.55;;;;;;;;;;4984521;28;20271;-68
2023/03/31 13:11:36;;;;;;;8.88;2.60;;;;;;;;;;4983063;28;20239;-68
2023/03/31 13:14:20;;;;;;;7.88;2.75;;;;;;;;;;4987079;28;20179;-68
2023/03/31 13:16:47;;;;;;;12.82;4.63;;;;;;;;;;4992140;28;20676;-68
2023/03/31 13:19:27;;;;;;;8.48;2.75;;;;;;;;;;4988293;28;20247;-68
2023/03/31 13:21:58;;;;;;;7.45;2.20;;;;;;;;;;4991306;28;20257;-68
2023/03/31 13:24:24;;;;;;;7.18;2.15;;;;;;;;;;4992531;28;20241;-68
2023/03/31 13:26:51;;;;;;;7.88;2.83;;;;;;;;;;4989296;28;20735;-68
2023/03/31 13:29:17;;;;;;;12.18;3.05;;;;;;;;;;4985545;28;20224;-68
2023/03/31 13:32:09;;;;;;;7.43;2.28;;;;;;;;;;4987780;28;20232;-68
2023/03/31 13:34:48;;;;;;;7.22;1.90;;;;;;;;;;4975066;28;20218;-68
2023/03/31 13:37:43;;;;;;;5.03;1.83;;;;;;;;;;4990172;28;20194;-68
2023/03/31 13:40:12;;;;;;;5.55;1.60;;;;;;;;;;4988318;28;20185;-68
2023/03/31 13:42:49;;;;;;;6.80;1.92;;;;;;;;;;4991918;28;20191;-68
2023/03/31 13:45:21;;;;;;;5.07;1.92;;;;;;;;;;4985083;28;20268;-68
2023/03/31 13:47:53;;;;;;;6.25;2.10;;;;;;;;;;4988797;28;20195;-68
2023/03/31 13:50:37;;;;;;;5.57;1.42;;;;;;;;;;4992217;28;20202;-68
2023/03/31 13:53:24;;;;;;;6.78;2.20;;;;;;;;;;4991829;28;20254;-68
2023/03/31 13:56:08;;;;;;;6.97;2.05;;;;;;;;;;4990858;28;20183;-68
2023/03/31 13:58:51;;;;;;;7.88;2.50;;;;;;;;;;4986104;28;20185;-68
2023/03/31 14:01:35;;;;;;;7.78;1.80;;;;;;;;;;4984529;28;20196;-68
2023/03/31 14:04:06;;;;;;;6.03;1.90;;;;;;;;;;4988214;28;20179;-68
2023/03/31 14:06:50;;;;;;;5.75;2.67;;;;;;;;;;4985823;28;20217;-68
2023/03/31 14:09:36;;;;;;;7.60;1.52;;;;;;;;;;4989241;28;20172;-68
2023/03/31 14:12:17;;;;;;;3.20;1.38;;;;;;;;;;4979110;28;20215;-68
2023/03/31 14:14:43;;;;;;;8.18;2.08;;;;;;;;;;4988738;28;20196;-68
2023/03/31 14:17:10;;;;;;;7.00;1.63;;;;;;;;;;4990073;28;20184;-68
2023/03/31 14:19:41;;;;;;;7.22;1.63;;;;;;;;;;4991487;28;20171;-68
2023/03/31 14:22:41;;;;;;;5.75;1.80;;;;;;;;;;4988324;28;20326;-68
2023/03/31 14:25:12;;;;;;;8.73;2.45;;;;;;;;;;4983401;28;20188;-68
2023/03/31 14:27:38;;;;;;;6.10;2.35;;;;;;;;;;4985526;28;20184;-68
2023/03/31 14:32:48;;;;;;;3.42;1.08;;;;;;;;;;4992824;28;20351;-71
2023/03/31 14:35:17;;;;;;;3.80;1.33;;;;;;;;;;4999425;28;20183;-71
2023/03/31 14:37:42;;;;;;;1.65;1.10;;;;;;;;;;4996327;28;20267;-71
2023/03/31 14:40:12;;;;;;;2.92;1.20;;;;;;;;;;5000696;28;20788;-69
2023/03/31 14:42:38;;;;;;;2.08;1.40;;;;;;;;;;4985874;28;20184;-70
2023/03/31 14:45:05;;;;;;;1.90;1.33;;;;;;;;;;4991058;28;20258;-69
2023/03/31 14:47:30;;;;;;;4.78;1.40;;;;;;;;;;4985253;28;20480;-72
2023/03/31 14:50:00;;;;;;;3.67;1.40;;;;;;;;;;4988438;28;20179;-71
2023/03/31 14:52:28;;;;;;;2.25;1.52;;;;;;;;;;4988837;28;20833;-71
2023/03/31 14:54:53;;;;;;;4.03;1.35;;;;;;;;;;4984676;28;20230;-71
2023/03/31 14:57:21;;;;;;;5.05;1.02;;;;;;;;;;4988371;28;20207;-71